Oriental Clematis — 9VJT5 — position and weather

sailwx.info

Track history (hours):
 
Tides and Currents Weather Stations Pressure Air Temp Water Temp Dewpoint Dewpoint Depression Visibility Wind Speed Wind Dir Waves Ship Positions

Oriental Clematis

Last reported at 2015-Sep-04 02:13 UTC. Time now 2015-Sep-04 05:57 UTC.
Position N 31°00' E 122°40'.

Length 134 m; draft 5.2 m.

Type: Ship. MMSI: 565157000.

Date/timePositionNaut miles runAvg speedWind from/ knotsBaromVisibWave heightAir tempDewpointWater temp
2015-Sep-04 02:13N 31°00' E 122°40'0 0.3
2015-Sep-04 01:33N 31°00' E 122°40'  
2015-Aug-31 13:32N 34°53' E 139°38'1312.9
2015-Aug-31 12:33N 35°05' E 139°43'1212.1
2015-Aug-31 11:33N 35°17' E 139°45'10 9.6
2015-Aug-31 10:33N 35°26' E 139°46'1111.2
2015-Aug-31 09:33N 35°33' E 139°57'3 1.5
2015-Aug-31 07:26N 35°34' E 140°00'0 0.0
2015-Aug-31 06:29N 35°34' E 140°00'0 0.0
2015-Aug-31 05:32N 35°34' E 140°00'0 0.0
2015-Aug-31 04:32N 35°34' E 140°00'0 0.0
2015-Aug-31 03:32N 35°34' E 140°00'0 0.0
2015-Aug-31 02:32N 35°34' E 140°00'0 0.0
2015-Aug-31 01:26N 35°34' E 140°00'0 0.1
2015-Aug-31 00:32N 35°34' E 140°00'0 0.0
2015-Aug-30 23:32N 35°34' E 140°00'0 0.0
2015-Aug-30 22:32N 35°34' E 140°00'0 0.0
2015-Aug-30 21:32N 35°34' E 140°00'0 0.0
2015-Aug-30 20:32N 35°34' E 140°00'0 0.0
2015-Aug-30 19:29N 35°34' E 140°00'0 0.0
2015-Aug-30 18:32N 35°34' E 140°00'0 0.0
2015-Aug-30 17:32N 35°34' E 140°00'0 0.0
2015-Aug-30 16:32N 35°34' E 140°00'0 0.0
2015-Aug-30 15:29N 35°34' E 140°00'0 0.0
2015-Aug-30 14:32N 35°34' E 140°00'0 0.0
2015-Aug-30 13:32N 35°34' E 140°00'0 0.0
2015-Aug-30 12:32N 35°34' E 140°00'0 0.0
2015-Aug-30 11:32N 35°34' E 140°00'0 0.0
2015-Aug-30 10:32N 35°34' E 140°00'0 0.0
2015-Aug-30 09:26N 35°34' E 140°00'0 0.0
2015-Aug-30 08:32N 35°34' E 140°00'0 0.1
2015-Aug-30 07:32N 35°34' E 140°00'0 0.0
2015-Aug-30 06:32N 35°34' E 140°00'0 0.0
2015-Aug-30 05:32N 35°34' E 140°00'0 0.0
2015-Aug-30 04:32N 35°34' E 140°00'0 0.0
2015-Aug-30 03:32N 35°34' E 140°00'0 0.1
2015-Aug-30 02:32N 35°34' E 140°00'0 0.0
2015-Aug-30 01:32N 35°34' E 140°00'0 0.0
2015-Aug-30 00:26N 35°34' E 140°00'0 0.0
2015-Aug-29 23:29N 35°34' E 140°00'0 0.0
2015-Aug-29 22:32N 35°34' E 140°00'0 0.0
2015-Aug-29 21:32N 35°34' E 140°00'0 0.0
2015-Aug-29 20:32N 35°34' E 140°00'0 0.0
2015-Aug-29 19:20N 35°34' E 140°00'0 0.0
2015-Aug-29 18:26N 35°34' E 140°00'0 0.0
2015-Aug-29 17:26N 35°34' E 140°00'0 0.0
2015-Aug-29 16:32N 35°34' E 140°00'0 0.0
2015-Aug-29 15:32N 35°34' E 140°00'0 0.0
2015-Aug-29 14:29N 35°34' E 140°00'0 0.0
2015-Aug-29 13:32N 35°34' E 140°00'0 0.0
2015-Aug-29 12:26N 35°34' E 140°00'0 0.0
2015-Aug-29 11:32N 35°34' E 140°00'0 0.0
2015-Aug-29 10:32N 35°34' E 140°00'0 0.0
2015-Aug-29 09:32N 35°34' E 140°00'0 0.0
2015-Aug-29 08:32N 35°34' E 140°00'0 0.0
2015-Aug-29 07:26N 35°34' E 140°00'0 0.1
2015-Aug-29 06:32N 35°34' E 140°00'0 0.0
2015-Aug-29 05:32N 35°34' E 140°00'0 0.0
2015-Aug-29 04:32N 35°34' E 140°00'0 0.0
2015-Aug-29 03:26N 35°34' E 140°00'0 0.0
2015-Aug-29 02:32N 35°34' E 140°00'0 0.0
2015-Aug-29 01:26N 35°34' E 140°00'0 0.0
2015-Aug-29 00:32N 35°34' E 140°00'0 0.0
2015-Aug-28 23:32N 35°34' E 140°00'0 0.0
2015-Aug-28 22:32N 35°34' E 140°00'0 0.0
2015-Aug-28 21:32N 35°34' E 140°00'0 0.0
2015-Aug-28 20:32N 35°34' E 140°00'0 0.0
2015-Aug-28 19:26N 35°34' E 140°00'0 0.0
2015-Aug-28 18:32N 35°34' E 140°00'0 0.0
2015-Aug-28 17:32N 35°34' E 140°00'0 0.0
2015-Aug-28 16:29N 35°34' E 140°00'0 0.0
2015-Aug-28 15:29N 35°34' E 140°00'0 0.0
2015-Aug-28 14:32N 35°34' E 140°00'0 0.0
2015-Aug-28 13:32N 35°34' E 140°00'0 0.0
2015-Aug-28 12:32N 35°34' E 140°00'0 0.0
2015-Aug-28 11:29N 35°34' E 140°00'0 0.0
2015-Aug-28 10:32N 35°34' E 140°00'3 2.6
2015-Aug-28 09:33N 35°33' E 139°57'1 0.8
2015-Aug-28 08:33N 35°33' E 139°57'8 6.1
2015-Aug-28 07:13N 35°36' E 140°06'0 0.0
2015-Aug-28 06:19N 35°36' E 140°06'0 0.0
2015-Aug-28 05:31N 35°36' E 140°06'0 0.0
2015-Aug-28 04:07N 35°36' E 140°06'0 0.0
2015-Aug-28 03:31N 35°36' E 140°06'0 0.0
2015-Aug-28 02:28N 35°36' E 140°06'0 0.0
2015-Aug-28 01:31N 35°36' E 140°06'0 0.0
2015-Aug-28 00:31N 35°36' E 140°06'0 0.2
2015-Aug-27 23:28N 35°36' E 140°05'0 0.0
2015-Aug-27 21:31N 35°36' E 140°05'0 0.0
2015-Aug-27 20:31N 35°36' E 140°05'0 0.0
2015-Aug-27 19:31N 35°36' E 140°05'0 0.0
2015-Aug-27 17:19N 35°36' E 140°05'0 0.0
2015-Aug-27 16:19N 35°36' E 140°05'0 0.0
2015-Aug-27 15:31N 35°36' E 140°05'0 0.0
2015-Aug-27 14:31N 35°36' E 140°05'0 0.0
2015-Aug-27 13:31N 35°36' E 140°05'0 0.0
2015-Aug-27 12:13N 35°36' E 140°05'0 0.0
2015-Aug-27 11:31N 35°36' E 140°05'0 0.0
2015-Aug-27 10:19N 35°36' E 140°05'0 0.0
2015-Aug-27 09:31N 35°36' E 140°05'0 0.0
2015-Aug-27 07:31N 35°36' E 140°05'0 0.0
2015-Aug-27 06:31N 35°36' E 140°05'0 0.0
2015-Aug-27 05:24N 35°36' E 140°05'0 0.0
2015-Aug-27 04:12N 35°36' E 140°05'0 0.0
2015-Aug-27 03:30N 35°36' E 140°05'0 0.0
2015-Aug-27 02:30N 35°36' E 140°05'0 0.0
2015-Aug-27 01:30N 35°36' E 140°05'0 0.0
2015-Aug-27 00:30N 35°36' E 140°05'0 0.0
2015-Aug-26 23:30N 35°36' E 140°05'1 0.9
2015-Aug-26 22:34N 35°36' E 140°05'4 4.0
2015-Aug-26 21:33N 35°34' E 140°00'0 0.1
2015-Aug-26 20:33N 35°34' E 140°00'0 0.0
2015-Aug-26 19:33N 35°34' E 140°00'0 0.0
2015-Aug-26 18:33N 35°34' E 140°00'0 0.0
2015-Aug-26 17:33N 35°34' E 140°00'1 0.5
2015-Aug-26 16:33N 35°34' E 139°60'6 6.2
2015-Aug-26 15:34N 35°30' E 139°54'1111.1
2015-Aug-26 14:34N 35°22' E 139°45'1010.0
2015-Aug-26 13:33N 35°12' E 139°47'1111.1
2015-Aug-26 12:33N 35°01' E 139°42'1110.6
2015-Aug-26 11:33N 34°52' E 139°37'236 9.3
2015-Aug-25 10:04N 33°57' E 134°59'5 9.0
2015-Aug-25 09:33N 34°02' E 134°59'9 9.2
2015-Aug-25 08:33N 34°11' E 134°59'9 7.8
2015-Aug-25 07:25N 34°20' E 134°59'8 9.3
2015-Aug-25 06:31N 34°26' E 135°07'1010.1
2015-Aug-25 05:33N 34°28' E 135°18'  
Track history (hours):
 
Tides and Currents Weather Stations Pressure Air Temp Water Temp Dewpoint Dewpoint Depression Visibility Wind Speed Wind Dir Waves Ship Positions

Oriental Clematis

Last reported at 2015-Sep-04 02:13 UTC. Time now 2015-Sep-04 05:57 UTC.
Position N 31°00' E 122°40'.

Length 134 m; draft 5.2 m.

Type: Ship. MMSI: 565157000.

Date/timePositionNaut miles runAvg speedWind from/ knotsBaromVisibWave heightAir tempDewpointWater temp
2015-Sep-04 02:13N 31°00' E 122°40'0 0.3
2015-Sep-04 01:33N 31°00' E 122°40'  
2015-Aug-31 13:32N 34°53' E 139°38'1312.9
2015-Aug-31 12:33N 35°05' E 139°43'1212.1
2015-Aug-31 11:33N 35°17' E 139°45'10 9.6
2015-Aug-31 10:33N 35°26' E 139°46'1111.2
2015-Aug-31 09:33N 35°33' E 139°57'3 1.5
2015-Aug-31 07:26N 35°34' E 140°00'0 0.0
2015-Aug-31 06:29N 35°34' E 140°00'0 0.0
2015-Aug-31 05:32N 35°34' E 140°00'0 0.0
2015-Aug-31 04:32N 35°34' E 140°00'0 0.0
2015-Aug-31 03:32N 35°34' E 140°00'0 0.0
2015-Aug-31 02:32N 35°34' E 140°00'0 0.0
2015-Aug-31 01:26N 35°34' E 140°00'0 0.1
2015-Aug-31 00:32N 35°34' E 140°00'0 0.0
2015-Aug-30 23:32N 35°34' E 140°00'0 0.0
2015-Aug-30 22:32N 35°34' E 140°00'0 0.0
2015-Aug-30 21:32N 35°34' E 140°00'0 0.0
2015-Aug-30 20:32N 35°34' E 140°00'0 0.0
2015-Aug-30 19:29N 35°34' E 140°00'0 0.0
2015-Aug-30 18:32N 35°34' E 140°00'0 0.0
2015-Aug-30 17:32N 35°34' E 140°00'0 0.0
2015-Aug-30 16:32N 35°34' E 140°00'0 0.0
2015-Aug-30 15:29N 35°34' E 140°00'0 0.0
2015-Aug-30 14:32N 35°34' E 140°00'0 0.0
2015-Aug-30 13:32N 35°34' E 140°00'0 0.0
2015-Aug-30 12:32N 35°34' E 140°00'0 0.0
2015-Aug-30 11:32N 35°34' E 140°00'0 0.0
2015-Aug-30 10:32N 35°34' E 140°00'0 0.0
2015-Aug-30 09:26N 35°34' E 140°00'0 0.0
2015-Aug-30 08:32N 35°34' E 140°00'0 0.1
2015-Aug-30 07:32N 35°34' E 140°00'0 0.0
2015-Aug-30 06:32N 35°34' E 140°00'0 0.0
2015-Aug-30 05:32N 35°34' E 140°00'0 0.0
2015-Aug-30 04:32N 35°34' E 140°00'0 0.0
2015-Aug-30 03:32N 35°34' E 140°00'0 0.1
2015-Aug-30 02:32N 35°34' E 140°00'0 0.0
2015-Aug-30 01:32N 35°34' E 140°00'0 0.0
2015-Aug-30 00:26N 35°34' E 140°00'0 0.0
2015-Aug-29 23:29N 35°34' E 140°00'0 0.0
2015-Aug-29 22:32N 35°34' E 140°00'0 0.0
2015-Aug-29 21:32N 35°34' E 140°00'0 0.0
2015-Aug-29 20:32N 35°34' E 140°00'0 0.0
2015-Aug-29 19:20N 35°34' E 140°00'0 0.0
2015-Aug-29 18:26N 35°34' E 140°00'0 0.0
2015-Aug-29 17:26N 35°34' E 140°00'0 0.0
2015-Aug-29 16:32N 35°34' E 140°00'0 0.0
2015-Aug-29 15:32N 35°34' E 140°00'0 0.0
2015-Aug-29 14:29N 35°34' E 140°00'0 0.0
2015-Aug-29 13:32N 35°34' E 140°00'0 0.0
2015-Aug-29 12:26N 35°34' E 140°00'0 0.0
2015-Aug-29 11:32N 35°34' E 140°00'0 0.0
2015-Aug-29 10:32N 35°34' E 140°00'0 0.0
2015-Aug-29 09:32N 35°34' E 140°00'0 0.0
2015-Aug-29 08:32N 35°34' E 140°00'0 0.0
2015-Aug-29 07:26N 35°34' E 140°00'0 0.1
2015-Aug-29 06:32N 35°34' E 140°00'0 0.0
2015-Aug-29 05:32N 35°34' E 140°00'0 0.0
2015-Aug-29 04:32N 35°34' E 140°00'0 0.0
2015-Aug-29 03:26N 35°34' E 140°00'0 0.0
2015-Aug-29 02:32N 35°34' E 140°00'0 0.0
2015-Aug-29 01:26N 35°34' E 140°00'0 0.0
2015-Aug-29 00:32N 35°34' E 140°00'0 0.0
2015-Aug-28 23:32N 35°34' E 140°00'0 0.0
2015-Aug-28 22:32N 35°34' E 140°00'0 0.0
2015-Aug-28 21:32N 35°34' E 140°00'0 0.0
2015-Aug-28 20:32N 35°34' E 140°00'0 0.0
2015-Aug-28 19:26N 35°34' E 140°00'0 0.0
2015-Aug-28 18:32N 35°34' E 140°00'0 0.0
2015-Aug-28 17:32N 35°34' E 140°00'0 0.0
2015-Aug-28 16:29N 35°34' E 140°00'0 0.0
2015-Aug-28 15:29N 35°34' E 140°00'0 0.0
2015-Aug-28 14:32N 35°34' E 140°00'0 0.0
2015-Aug-28 13:32N 35°34' E 140°00'0 0.0
2015-Aug-28 12:32N 35°34' E 140°00'0 0.0
2015-Aug-28 11:29N 35°34' E 140°00'0 0.0
2015-Aug-28 10:32N 35°34' E 140°00'3 2.6
2015-Aug-28 09:33N 35°33' E 139°57'1 0.8
2015-Aug-28 08:33N 35°33' E 139°57'8 6.1
2015-Aug-28 07:13N 35°36' E 140°06'0 0.0
2015-Aug-28 06:19N 35°36' E 140°06'0 0.0
2015-Aug-28 05:31N 35°36' E 140°06'0 0.0
2015-Aug-28 04:07N 35°36' E 140°06'0 0.0
2015-Aug-28 03:31N 35°36' E 140°06'0 0.0
2015-Aug-28 02:28N 35°36' E 140°06'0 0.0
2015-Aug-28 01:31N 35°36' E 140°06'0 0.0
2015-Aug-28 00:31N 35°36' E 140°06'0 0.2
2015-Aug-27 23:28N 35°36' E 140°05'0 0.0
2015-Aug-27 21:31N 35°36' E 140°05'0 0.0
2015-Aug-27 20:31N 35°36' E 140°05'0 0.0
2015-Aug-27 19:31N 35°36' E 140°05'0 0.0
2015-Aug-27 17:19N 35°36' E 140°05'0 0.0
2015-Aug-27 16:19N 35°36' E 140°05'0 0.0
2015-Aug-27 15:31N 35°36' E 140°05'0 0.0
2015-Aug-27 14:31N 35°36' E 140°05'0 0.0
2015-Aug-27 13:31N 35°36' E 140°05'0 0.0
2015-Aug-27 12:13N 35°36' E 140°05'0 0.0
2015-Aug-27 11:31N 35°36' E 140°05'0 0.0
2015-Aug-27 10:19N 35°36' E 140°05'0 0.0
2015-Aug-27 09:31N 35°36' E 140°05'0 0.0
2015-Aug-27 07:31N 35°36' E 140°05'0 0.0
2015-Aug-27 06:31N 35°36' E 140°05'0 0.0
2015-Aug-27 05:24N 35°36' E 140°05'0 0.0
2015-Aug-27 04:12N 35°36' E 140°05'0 0.0
2015-Aug-27 03:30N 35°36' E 140°05'0 0.0
2015-Aug-27 02:30N 35°36' E 140°05'0 0.0
2015-Aug-27 01:30N 35°36' E 140°05'0 0.0
2015-Aug-27 00:30N 35°36' E 140°05'0 0.0
2015-Aug-26 23:30N 35°36' E 140°05'1 0.9
2015-Aug-26 22:34N 35°36' E 140°05'4 4.0
2015-Aug-26 21:33N 35°34' E 140°00'0 0.1
2015-Aug-26 20:33N 35°34' E 140°00'0 0.0
2015-Aug-26 19:33N 35°34' E 140°00'0 0.0
2015-Aug-26 18:33N 35°34' E 140°00'0 0.0
2015-Aug-26 17:33N 35°34' E 140°00'1 0.5
2015-Aug-26 16:33N 35°34' E 139°60'6 6.2
2015-Aug-26 15:34N 35°30' E 139°54'1111.1
2015-Aug-26 14:34N 35°22' E 139°45'1010.0
2015-Aug-26 13:33N 35°12' E 139°47'1111.1
2015-Aug-26 12:33N 35°01' E 139°42'1110.6
2015-Aug-26 11:33N 34°52' E 139°37'236 9.3
2015-Aug-25 10:04N 33°57' E 134°59'5 9.0
2015-Aug-25 09:33N 34°02' E 134°59'9 9.2
2015-Aug-25 08:33N 34°11' E 134°59'9 7.8
2015-Aug-25 07:25N 34°20' E 134°59'8 9.3
2015-Aug-25 06:31N 34°26' E 135°07'1010.1
2015-Aug-25 05:33N 34°28' E 135°18'  

Dump ship's entire track history